createdAt,value
2023-03-28T12:04:49.690Z,2.40
2023-03-28T12:05:49.641Z,3.10
2023-03-28T12:07:01.928Z,3.20
2023-03-28T12:07:50.554Z,3.40
2023-03-28T12:08:49.649Z,3.60
2023-03-28T12:09:49.561Z,4.30
2023-03-28T12:10:49.532Z,2.30
2023-03-28T12:11:57.350Z,3.20
2023-03-28T12:12:49.538Z,3.40
2023-03-28T12:13:55.475Z,4.20
2023-03-28T12:14:50.447Z,4.10
2023-03-28T12:15:49.434Z,3.30
2023-03-28T12:16:49.506Z,4.90
2023-03-28T12:17:49.480Z,4.00
2023-03-28T12:18:49.408Z,3.00
2023-03-28T12:19:49.357Z,3.80
2023-03-28T12:20:49.380Z,4.10
2023-03-28T12:21:49.347Z,4.10
2023-03-28T12:22:49.391Z,2.30
2023-03-28T12:23:49.391Z,2.90
2023-03-28T12:24:49.384Z,2.50
2023-03-28T12:25:49.298Z,3.00
2023-03-28T12:26:49.300Z,4.00
2023-03-28T12:27:49.325Z,3.20
2023-03-28T12:28:49.264Z,3.60
2023-03-28T12:29:49.290Z,2.10
2023-03-28T12:30:49.331Z,4.80
2023-03-28T12:31:49.226Z,2.30
2023-03-28T12:32:49.202Z,3.80
2023-03-28T12:33:49.316Z,3.50
2023-03-28T12:34:49.195Z,2.20
2023-03-28T12:35:49.258Z,3.10
2023-03-28T12:36:49.258Z,3.70
2023-03-28T12:37:49.131Z,3.80
2023-03-28T12:38:49.117Z,4.00
2023-03-28T12:39:49.132Z,4.00
2023-03-28T12:40:49.060Z,2.80
2023-03-28T12:41:49.061Z,2.70
2023-03-28T12:42:49.114Z,3.30
2023-03-28T12:43:49.112Z,2.80
2023-03-28T12:44:49.012Z,2.80
2023-03-28T12:45:49.010Z,2.30
2023-03-28T12:46:49.009Z,1.70
2023-03-28T12:47:49.176Z,3.30
2023-03-28T12:48:49.051Z,2.90
2023-03-28T12:49:49.050Z,2.50
2023-03-28T12:50:49.209Z,3.90
2023-03-28T12:51:49.071Z,2.60
2023-03-28T12:52:49.156Z,3.00
2023-03-28T12:53:49.061Z,2.50
2023-03-28T12:54:49.103Z,3.20
2023-03-28T12:55:48.945Z,2.80
2023-03-28T12:56:48.866Z,3.00
2023-03-28T12:57:48.990Z,2.60
2023-03-28T12:58:49.042Z,2.70
2023-03-28T12:59:51.126Z,4.50
2023-03-28T13:00:48.872Z,3.00
2023-03-28T13:01:48.817Z,2.60
2023-03-28T13:02:48.820Z,3.30
2023-03-28T13:03:48.826Z,2.50
2023-03-28T13:04:55.475Z,2.30
2023-03-28T13:05:48.750Z,1.30
2023-03-28T13:06:49.244Z,2.10
2023-03-28T13:07:48.974Z,3.60
2023-03-28T13:08:48.918Z,3.30
2023-03-28T13:09:48.811Z,1.90
2023-03-28T13:10:48.682Z,4.10
2023-03-28T13:11:48.781Z,2.60
2023-03-28T13:12:49.004Z,3.80
2023-03-28T13:13:48.657Z,2.00
2023-03-28T13:14:48.674Z,2.70
2023-03-28T13:15:48.857Z,2.20
2023-03-28T13:16:48.704Z,2.10
2023-03-28T13:17:48.817Z,2.30
2023-03-28T13:18:48.705Z,1.50
2023-03-28T13:19:48.722Z,1.60
2023-03-28T13:20:48.772Z,2.70
2023-03-28T13:21:49.055Z,1.40
2023-03-28T13:22:48.602Z,1.80
2023-03-28T13:23:48.657Z,1.90
2023-03-28T13:24:48.717Z,2.30
2023-03-28T13:25:48.581Z,1.90
2023-03-28T13:26:48.516Z,1.50
2023-03-28T13:27:48.494Z,2.50
2023-03-28T13:28:48.535Z,3.10
2023-03-28T13:29:48.687Z,2.90
2023-03-28T13:30:48.442Z,1.20
2023-03-28T13:31:48.494Z,2.20
2023-03-28T13:32:48.503Z,2.00
2023-03-28T13:33:49.523Z,2.60
2023-03-28T13:34:48.394Z,1.70
2023-03-28T13:35:48.536Z,2.10
2023-03-28T13:36:48.497Z,1.40
2023-03-28T13:37:48.360Z,2.20
2023-03-28T13:38:48.782Z,2.20
2023-03-28T13:39:48.269Z,2.70
2023-03-28T13:40:48.656Z,2.00
2023-03-28T13:41:49.526Z,1.70
2023-03-28T13:42:48.458Z,1.80
2023-03-28T13:43:48.860Z,1.90
2023-03-28T13:44:48.466Z,1.90
2023-03-28T13:45:48.426Z,2.10
2023-03-28T13:46:48.511Z,1.70
2023-03-28T13:47:50.177Z,1.80
2023-03-28T13:48:49.396Z,1.10
2023-03-28T13:49:48.134Z,1.50
2023-03-28T13:50:48.119Z,1.70
2023-03-28T13:51:48.121Z,1.80
2023-03-28T13:52:48.109Z,1.40
2023-03-28T13:53:48.587Z,2.00
2023-03-28T13:54:56.672Z,2.10
2023-03-28T13:55:48.073Z,1.50
2023-03-28T13:56:48.062Z,2.30
2023-03-28T13:57:48.078Z,2.70
2023-03-28T13:58:48.036Z,2.50
2023-03-28T13:59:48.099Z,2.40
2023-03-28T14:00:48.004Z,2.00
2023-03-28T14:01:48.152Z,1.70
2023-03-28T14:02:48.319Z,3.80
2023-03-28T14:03:48.358Z,2.40
2023-03-28T14:04:48.092Z,1.80
2023-03-28T14:05:48.133Z,2.20
2023-03-28T14:06:48.291Z,2.80
2023-03-28T14:07:47.935Z,1.60
2023-03-28T14:08:47.927Z,2.00
2023-03-28T14:09:47.917Z,2.80
2023-03-28T14:10:47.959Z,2.00
2023-03-28T14:11:47.897Z,2.50
2023-03-28T14:12:47.877Z,2.20
2023-03-28T14:13:47.819Z,2.40
2023-03-28T14:14:47.825Z,1.50
2023-03-28T14:15:47.781Z,3.10
2023-03-28T14:16:48.504Z,2.60
2023-03-28T14:17:47.790Z,3.30
2023-03-28T14:18:47.775Z,1.70
2023-03-28T14:19:47.844Z,2.10
2023-03-28T14:20:48.434Z,1.90
2023-03-28T14:21:47.918Z,2.00
2023-03-28T14:22:59.116Z,2.00
2023-03-28T14:23:48.715Z,2.00
2023-03-28T14:24:48.576Z,1.80
2023-03-28T14:25:47.648Z,1.60
2023-03-28T14:26:47.640Z,1.90
2023-03-28T14:27:47.629Z,3.00
2023-03-28T14:28:47.640Z,3.00
2023-03-28T14:29:47.603Z,1.50
2023-03-28T14:30:47.618Z,2.00
2023-03-28T14:31:47.602Z,2.00
2023-03-28T14:32:57.136Z,2.80
2023-03-28T14:33:48.603Z,1.90
2023-03-28T14:34:47.643Z,2.10
2023-03-28T14:35:47.584Z,2.30
2023-03-28T14:36:47.561Z,2.60
2023-03-28T14:37:47.549Z,1.70
2023-03-28T14:38:47.511Z,1.80
2023-03-28T14:39:47.494Z,2.20
2023-03-28T14:40:47.463Z,2.50
2023-03-28T14:41:47.483Z,2.20
2023-03-28T14:42:47.477Z,2.30
2023-03-28T14:43:47.449Z,1.80
2023-03-28T14:44:47.419Z,2.80
2023-03-28T14:45:47.495Z,1.50
2023-03-28T14:46:47.391Z,2.70
2023-03-28T14:47:48.131Z,3.10
2023-03-28T14:48:47.334Z,1.70
2023-03-28T14:49:47.382Z,1.40
2023-03-28T14:50:47.443Z,2.70
2023-03-28T14:51:47.338Z,1.70
2023-03-28T14:52:47.378Z,3.30
2023-03-28T14:53:47.319Z,2.60
2023-03-28T14:54:47.344Z,1.90
2023-03-28T14:55:47.314Z,1.80
2023-03-28T14:56:47.319Z,2.30
2023-03-28T14:57:47.399Z,2.40
2023-03-28T14:58:47.408Z,2.60
2023-03-28T14:59:47.254Z,1.70
2023-03-28T15:00:47.269Z,1.90
2023-03-28T15:01:47.204Z,2.20
2023-03-28T15:02:47.318Z,1.80
2023-03-28T15:03:47.374Z,1.80
2023-03-28T15:04:47.222Z,3.00
2023-03-28T15:05:47.160Z,3.10
2023-03-28T15:06:47.212Z,2.80
2023-03-28T15:07:47.082Z,2.20
2023-03-28T15:08:47.209Z,2.50
2023-03-28T15:09:47.087Z,1.40
2023-03-28T15:10:47.130Z,2.20
2023-03-28T15:11:47.073Z,2.60
2023-03-28T15:12:47.117Z,2.60
2023-03-28T15:13:47.024Z,2.10
2023-03-28T15:14:47.043Z,1.50
2023-03-28T15:15:47.005Z,2.70
2023-03-28T15:16:47.064Z,2.60
2023-03-28T15:17:47.011Z,2.20
2023-03-28T15:18:46.996Z,2.90
2023-03-28T15:19:46.994Z,2.50
2023-03-28T15:20:46.920Z,2.70
2023-03-28T15:21:46.927Z,1.70
2023-03-28T15:22:46.901Z,2.50
2023-03-28T15:23:46.956Z,2.40
2023-03-28T15:24:46.925Z,2.70
2023-03-28T15:25:47.008Z,2.30
2023-03-28T15:26:46.959Z,2.50
2023-03-28T15:27:47.076Z,2.10
2023-03-28T15:28:46.794Z,2.20
2023-03-28T15:29:46.807Z,2.10
2023-03-28T15:30:46.874Z,1.40
2023-03-28T15:31:46.888Z,3.10
2023-03-28T15:32:47.048Z,1.50
2023-03-28T15:33:46.811Z,2.60
2023-03-28T15:34:47.251Z,1.80
2023-03-28T15:35:46.765Z,1.90
2023-03-28T15:36:46.704Z,2.70
2023-03-28T15:37:46.745Z,3.00
2023-03-28T15:38:46.668Z,3.10
2023-03-28T15:39:46.735Z,3.20
2023-03-28T15:40:46.650Z,2.50
2023-03-28T15:41:46.673Z,1.90
2023-03-28T15:42:46.734Z,2.80
2023-03-28T15:43:46.613Z,2.50
2023-03-28T15:44:46.635Z,3.50
2023-03-28T15:45:46.622Z,3.30
2023-03-28T15:46:46.726Z,2.80
2023-03-28T15:47:46.583Z,2.10
2023-03-28T15:48:46.570Z,1.90
2023-03-28T15:49:47.536Z,2.80
2023-03-28T15:50:46.528Z,2.30
2023-03-28T15:51:46.526Z,1.80
2023-03-28T15:52:46.610Z,3.20
2023-03-28T15:53:46.586Z,2.30
2023-03-28T15:54:46.463Z,2.70
2023-03-28T15:55:46.478Z,2.60
2023-03-28T15:56:46.479Z,2.20
2023-03-28T15:57:48.064Z,2.50
2023-03-28T15:58:46.445Z,2.70
2023-03-28T15:59:46.422Z,4.70
2023-03-28T16:00:47.854Z,2.80
2023-03-28T16:01:46.455Z,2.60
2023-03-28T16:02:46.371Z,3.30
2023-03-28T16:03:46.416Z,2.90
2023-03-28T16:04:46.387Z,2.70
2023-03-28T16:05:46.317Z,2.60
2023-03-28T16:06:46.469Z,2.00
2023-03-28T16:07:46.409Z,3.70
2023-03-28T16:08:46.292Z,3.30
2023-03-28T16:09:46.273Z,3.10
2023-03-28T16:10:46.232Z,1.60
2023-03-28T16:11:46.265Z,2.70
2023-03-28T16:12:46.252Z,2.20
2023-03-28T16:13:46.219Z,4.00
2023-03-28T16:14:46.222Z,3.90
2023-03-28T16:15:46.435Z,3.10
2023-03-28T16:16:46.228Z,2.40
2023-03-28T16:17:46.175Z,3.40
2023-03-28T16:18:46.144Z,2.80
2023-03-28T16:19:46.177Z,2.60
2023-03-28T16:20:46.141Z,2.90
2023-03-28T16:21:46.141Z,2.90
2023-03-28T16:22:46.068Z,2.10
2023-03-28T16:23:46.098Z,2.30
2023-03-28T16:24:46.039Z,2.10
2023-03-28T16:25:46.049Z,2.90
2023-03-28T16:26:46.024Z,2.20
2023-03-28T16:27:46.059Z,3.00
2023-03-28T16:28:45.982Z,3.20
2023-03-28T16:29:45.975Z,2.40
2023-03-28T16:30:45.948Z,2.70
2023-03-28T16:31:46.093Z,2.10
2023-03-28T16:32:45.952Z,4.00
2023-03-28T16:33:45.935Z,3.30
2023-03-28T16:34:45.926Z,2.70
2023-03-28T16:35:45.969Z,2.70
2023-03-28T16:36:45.887Z,2.60
2023-03-28T16:37:45.957Z,2.20
2023-03-28T16:38:45.856Z,2.90
2023-03-28T16:39:45.831Z,2.30
2023-03-28T16:40:45.818Z,2.90
2023-03-28T16:41:45.857Z,2.60
2023-03-28T16:42:45.950Z,4.40
2023-03-28T16:43:45.819Z,2.20
2023-03-28T16:44:45.785Z,3.60
2023-03-28T16:45:45.794Z,3.30
2023-03-28T16:46:45.760Z,4.90
2023-03-28T16:47:45.797Z,2.20
2023-03-28T16:48:45.718Z,3.30
2023-03-28T16:49:45.683Z,3.80
2023-03-28T16:50:45.663Z,3.50
2023-03-28T16:51:45.692Z,2.40
2023-03-28T16:52:45.655Z,3.20
2023-03-28T16:53:45.843Z,2.40
2023-03-28T16:54:45.668Z,2.30
2023-03-28T16:55:45.648Z,3.80
2023-03-28T16:56:45.702Z,4.00
2023-03-28T16:57:45.685Z,1.80
2023-03-28T16:58:45.568Z,2.60
2023-03-28T16:59:45.614Z,4.20
2023-03-28T17:00:45.547Z,2.00
2023-03-28T17:01:45.606Z,2.30
2023-03-28T17:02:45.595Z,3.80
2023-03-28T17:03:45.574Z,4.00
2023-03-28T17:04:45.470Z,2.60
2023-03-28T17:05:45.484Z,2.60
2023-03-28T17:06:45.432Z,1.80
2023-03-28T17:07:45.546Z,2.40
2023-03-28T17:08:45.415Z,2.80
2023-03-28T17:09:45.440Z,5.40
2023-03-28T17:10:45.430Z,2.40
2023-03-28T17:11:45.361Z,2.50
2023-03-28T17:12:46.657Z,2.80
2023-03-28T17:13:46.527Z,2.80
2023-03-28T17:14:45.387Z,3.50
2023-03-28T17:15:45.321Z,3.70
2023-03-28T17:16:46.419Z,5.30
2023-03-28T17:17:45.447Z,3.90
2023-03-28T17:18:45.290Z,4.10
2023-03-28T17:19:45.939Z,3.10
2023-03-28T17:20:45.271Z,3.00
2023-03-28T17:21:45.273Z,4.90
2023-03-28T17:22:45.218Z,4.20
2023-03-28T17:23:45.242Z,2.80
2023-03-28T17:24:45.182Z,3.90
2023-03-28T17:25:54.485Z,5.00
2023-03-28T17:26:46.189Z,4.10
2023-03-28T17:27:45.147Z,5.20
2023-03-28T17:28:45.201Z,2.80
2023-03-28T17:29:45.203Z,3.50
2023-03-28T17:30:45.097Z,4.60
2023-03-28T17:31:45.096Z,3.60
2023-03-28T17:32:45.204Z,2.60
2023-03-28T17:33:45.127Z,4.10
2023-03-28T17:34:45.178Z,1.90
2023-03-28T17:35:45.106Z,3.20
2023-03-28T17:36:45.050Z,3.70
2023-03-28T17:37:45.018Z,3.50
2023-03-28T17:38:45.036Z,2.80
2023-03-28T17:39:44.985Z,2.50
2023-03-28T17:40:45.019Z,3.90
2023-03-28T17:41:44.948Z,4.10
2023-03-28T17:42:44.946Z,4.30
2023-03-28T17:43:46.152Z,4.50
2023-03-28T17:44:44.910Z,4.10
2023-03-28T17:45:44.897Z,3.60
2023-03-28T17:46:44.917Z,3.40
2023-03-28T17:47:44.931Z,2.60
2023-03-28T17:48:45.093Z,3.50
2023-03-28T17:49:44.905Z,3.40
2023-03-28T17:50:44.850Z,2.50
2023-03-28T17:51:45.158Z,2.30
2023-03-28T17:52:46.535Z,2.90
2023-03-28T17:53:44.775Z,2.80
2023-03-28T17:54:44.870Z,2.50
2023-03-28T17:55:47.959Z,3.00
2023-03-28T17:56:44.867Z,3.80
2023-03-28T17:57:45.212Z,4.10
2023-03-28T17:58:44.917Z,3.50
2023-03-28T17:59:44.774Z,2.30
2023-03-28T18:00:44.707Z,3.20
2023-03-28T18:01:46.257Z,3.20
2023-03-28T18:02:44.808Z,2.90
2023-03-28T18:03:44.855Z,3.80
2023-03-28T18:04:44.741Z,6.00
2023-03-28T18:05:44.655Z,2.90
2023-03-28T18:06:44.681Z,3.60
2023-03-28T18:07:44.637Z,4.30
2023-03-28T18:08:44.691Z,4.70
2023-03-28T18:09:44.651Z,4.60
2023-03-28T18:10:44.569Z,4.00
2023-03-28T18:11:44.555Z,2.40
2023-03-28T18:12:44.497Z,4.10
2023-03-28T18:13:44.690Z,4.10
2023-03-28T18:14:44.535Z,3.60
2023-03-28T18:15:44.580Z,5.20
2023-03-28T18:16:44.682Z,3.70
2023-03-28T18:17:44.526Z,3.10
2023-03-28T18:18:44.481Z,3.80
2023-03-28T18:19:44.505Z,2.90
2023-03-28T18:20:44.392Z,3.80
2023-03-28T18:21:44.406Z,4.10
2023-03-28T18:22:44.417Z,3.50
2023-03-28T18:23:44.441Z,3.60
2023-03-28T18:24:44.370Z,4.10
2023-03-28T18:25:44.388Z,4.20
2023-03-28T18:26:44.320Z,4.80
2023-03-28T18:27:44.505Z,5.40
2023-03-28T18:28:44.393Z,3.80
2023-03-28T18:29:44.318Z,3.70
2023-03-28T18:30:44.271Z,4.00
2023-03-28T18:31:44.368Z,4.10
2023-03-28T18:32:44.275Z,5.30
2023-03-28T18:33:44.261Z,4.80
2023-03-28T18:34:44.233Z,4.40
2023-03-28T18:35:44.281Z,3.60
2023-03-28T18:36:44.189Z,4.60
2023-03-28T18:37:44.242Z,3.50
2023-03-28T18:38:44.152Z,3.30
2023-03-28T18:39:44.145Z,3.00
2023-03-28T18:40:44.139Z,4.40
2023-03-28T18:41:44.198Z,4.30
2023-03-28T18:42:44.146Z,3.80
2023-03-28T18:43:44.105Z,5.10
2023-03-28T18:44:44.666Z,4.60
2023-03-28T18:45:44.153Z,4.30
2023-03-28T18:46:44.041Z,4.50
2023-03-28T18:47:44.103Z,4.60
2023-03-28T18:48:44.104Z,3.50
2023-03-28T18:49:44.050Z,6.60
2023-03-28T18:50:45.103Z,4.10
2023-03-28T18:51:44.000Z,2.80
2023-03-28T18:52:44.066Z,3.30
2023-03-28T18:53:54.558Z,4.50
2023-03-28T18:54:43.937Z,3.30
2023-03-28T18:55:43.924Z,4.50
2023-03-28T18:56:43.937Z,3.20
2023-03-28T18:57:43.951Z,2.90
2023-03-28T18:58:43.990Z,2.40
2023-03-28T18:59:43.981Z,2.60
2023-03-28T19:00:43.959Z,2.90
2023-03-28T19:01:45.094Z,2.40
2023-03-28T19:02:43.975Z,3.80
2023-03-28T19:03:43.876Z,3.80
2023-03-28T19:04:43.910Z,3.10
2023-03-28T19:05:43.862Z,3.00
2023-03-28T19:06:43.903Z,3.90
2023-03-28T19:07:43.797Z,4.40
2023-03-28T19:08:43.773Z,4.20
2023-03-28T19:09:43.808Z,4.20
2023-03-28T19:10:43.752Z,4.90
2023-03-28T19:11:43.734Z,3.90
2023-03-28T19:12:43.715Z,5.00
2023-03-28T19:13:43.736Z,3.30
2023-03-28T19:14:43.688Z,5.20
2023-03-28T19:15:43.762Z,4.60
2023-03-28T19:16:43.716Z,3.70
2023-03-28T19:17:43.738Z,2.60
2023-03-28T19:18:43.653Z,4.20
2023-03-28T19:19:43.630Z,3.30
2023-03-28T19:20:43.592Z,4.10
2023-03-28T19:21:43.683Z,3.50
2023-03-28T19:22:43.602Z,4.30
2023-03-28T19:23:43.591Z,4.90
2023-03-28T19:24:43.564Z,6.00
2023-03-28T19:25:43.547Z,3.70
2023-03-28T19:26:43.533Z,3.00
2023-03-28T19:27:43.498Z,4.00
2023-03-28T19:28:43.520Z,4.60
2023-03-28T19:29:43.518Z,4.60
2023-03-28T19:30:43.494Z,5.00
2023-03-28T19:31:43.560Z,4.00
2023-03-28T19:32:43.476Z,3.40
2023-03-28T19:33:43.484Z,3.50
2023-03-28T19:34:43.547Z,3.40
2023-03-28T19:35:43.443Z,3.40
2023-03-28T19:36:43.413Z,2.60
2023-03-28T19:37:43.364Z,3.30
2023-03-28T19:38:43.429Z,3.20
2023-03-28T19:39:43.370Z,3.00
2023-03-28T19:40:43.366Z,3.30
2023-03-28T19:41:43.375Z,2.10
2023-03-28T19:42:43.304Z,4.70
2023-03-28T19:43:43.379Z,3.50
2023-03-28T19:44:43.331Z,2.60
2023-03-28T19:45:43.305Z,2.70
2023-03-28T19:46:43.341Z,3.30
2023-03-28T19:47:43.276Z,3.20
2023-03-28T19:48:43.236Z,2.90
2023-03-28T19:49:43.265Z,2.30
2023-03-28T19:50:43.231Z,3.70
2023-03-28T19:51:43.216Z,2.20
2023-03-28T19:52:43.213Z,4.60
2023-03-28T19:53:43.204Z,3.20
2023-03-28T19:54:43.189Z,2.90
2023-03-28T19:56:53.561Z,4.80
2023-03-28T19:57:53.549Z,3.90
2023-03-28T19:58:53.595Z,3.90
2023-03-28T19:59:53.503Z,3.70
2023-03-28T20:00:53.464Z,3.20
2023-03-28T20:01:53.488Z,4.90
2023-03-28T20:02:53.503Z,4.80
2023-03-28T20:03:53.584Z,5.30
2023-03-28T20:04:53.462Z,4.20
2023-03-28T20:05:53.444Z,5.20
2023-03-28T20:06:53.415Z,3.50
2023-03-28T20:07:53.415Z,3.60
2023-03-28T20:08:53.477Z,3.20
2023-03-28T20:09:53.435Z,4.80
2023-03-28T20:10:53.382Z,3.20
2023-03-28T20:11:53.419Z,4.00
2023-03-28T20:12:53.349Z,3.10
2023-03-28T20:13:53.365Z,2.10
2023-03-28T20:14:55.036Z,5.20
2023-03-28T20:15:53.340Z,3.90
2023-03-28T20:16:53.291Z,3.00
2023-03-28T20:17:53.334Z,2.50
2023-03-28T20:18:53.262Z,3.70
2023-03-28T20:19:53.294Z,3.00
2023-03-28T20:20:53.297Z,5.30
2023-03-28T20:21:53.247Z,5.40
2023-03-28T20:22:53.219Z,4.20
2023-03-28T20:23:53.212Z,3.10
2023-03-28T20:24:53.268Z,3.70
2023-03-28T20:25:53.221Z,4.50
2023-03-28T20:26:53.158Z,3.50
2023-03-28T20:27:53.144Z,2.50
2023-03-28T20:28:53.162Z,5.00
2023-03-28T20:29:53.168Z,3.80
2023-03-28T20:30:53.223Z,3.60
2023-03-28T20:31:53.145Z,3.40
2023-03-28T20:32:53.111Z,2.50
2023-03-28T20:33:53.079Z,4.90
2023-03-28T20:34:53.109Z,5.20
2023-03-28T20:35:53.080Z,3.90
2023-03-28T20:36:53.021Z,3.30
2023-03-28T20:37:53.045Z,5.70
2023-03-28T20:38:53.040Z,3.00
2023-03-28T20:39:53.004Z,3.80
2023-03-28T20:40:53.007Z,2.20
2023-03-28T20:41:52.965Z,3.10
2023-03-28T20:42:52.959Z,4.80
2023-03-28T20:43:52.982Z,4.40
2023-03-28T20:44:52.937Z,3.10
2023-03-28T20:45:52.947Z,4.20
2023-03-28T20:46:52.992Z,4.70
2023-03-28T20:47:52.969Z,3.30
2023-03-28T20:48:53.414Z,3.10
2023-03-28T20:49:52.911Z,3.90
2023-03-28T20:50:52.855Z,2.90
2023-03-28T20:51:52.893Z,4.80
2023-03-28T20:52:52.826Z,5.10
2023-03-28T20:53:52.866Z,4.30
2023-03-28T20:54:52.833Z,4.30
2023-03-28T20:55:52.817Z,4.40
2023-03-28T20:56:52.857Z,4.60
2023-03-28T20:57:52.784Z,3.50
2023-03-28T20:58:52.830Z,4.70
2023-03-28T20:59:52.785Z,4.10
2023-03-28T21:00:52.805Z,3.80
2023-03-28T21:01:52.746Z,3.80
2023-03-28T21:02:52.754Z,5.00
2023-03-28T21:03:52.715Z,4.20
2023-03-28T21:04:52.781Z,5.60
2023-03-28T21:05:52.688Z,2.70
2023-03-28T21:06:52.700Z,3.80
2023-03-28T21:07:52.680Z,4.60
2023-03-28T21:08:52.681Z,4.70
2023-03-28T21:09:52.647Z,4.40
2023-03-28T21:10:52.714Z,4.80
2023-03-28T21:11:52.651Z,5.10
2023-03-28T21:12:52.593Z,4.40
2023-03-28T21:13:52.611Z,4.30
2023-03-28T21:14:52.601Z,4.30
2023-03-28T21:15:52.622Z,3.40
2023-03-28T21:16:52.614Z,4.30
2023-03-28T21:17:52.594Z,3.80
2023-03-28T21:18:52.529Z,4.30
2023-03-28T21:19:52.595Z,4.80
2023-03-28T21:20:52.534Z,3.80
2023-03-28T21:21:52.552Z,4.00
2023-03-28T21:22:52.533Z,4.90
2023-03-28T21:23:52.522Z,4.30
2023-03-28T21:24:52.462Z,4.60
2023-03-28T21:25:52.456Z,6.20
2023-03-28T21:26:52.424Z,4.10
2023-03-28T21:27:52.484Z,4.30
2023-03-28T21:28:52.553Z,4.50
2023-03-28T21:29:52.400Z,5.70
2023-03-28T21:30:52.390Z,4.40
2023-03-28T21:31:52.452Z,4.40
2023-03-28T21:32:52.465Z,6.40
2023-03-28T21:33:52.359Z,4.60
2023-03-28T21:34:52.363Z,5.60
2023-03-28T21:35:52.394Z,5.10
2023-03-28T21:36:52.319Z,3.90
2023-03-28T21:37:52.338Z,5.00
2023-03-28T21:38:52.296Z,5.80
2023-03-28T21:39:52.273Z,4.60
2023-03-28T21:40:52.348Z,5.60
2023-03-28T21:41:52.262Z,4.30
2023-03-28T21:42:52.242Z,4.30
2023-03-28T21:43:52.309Z,4.60
2023-03-28T21:44:52.207Z,5.20
2023-03-28T21:45:52.256Z,5.70
2023-03-28T21:46:52.235Z,4.70
2023-03-28T21:47:52.266Z,6.60
2023-03-28T21:48:52.170Z,4.80
2023-03-28T21:49:52.179Z,6.00
2023-03-28T21:50:52.133Z,6.00
2023-03-28T21:51:52.149Z,5.50
2023-03-28T21:52:52.116Z,6.10
2023-03-28T21:53:52.113Z,6.40
2023-03-28T21:54:52.139Z,6.70
2023-03-28T21:55:52.103Z,5.50
2023-03-28T21:56:52.174Z,7.40
2023-03-28T21:57:52.099Z,5.80
2023-03-28T21:58:52.070Z,4.90
2023-03-28T21:59:33.355Z,6.50
2023-03-28T22:00:33.368Z,7.20
2023-03-28T22:01:33.386Z,6.70
2023-03-28T22:02:33.386Z,8.00
2023-03-28T22:03:33.378Z,10.10
2023-03-28T22:04:33.294Z,6.40
2023-03-28T22:05:33.298Z,7.00
2023-03-28T22:06:33.320Z,6.20
2023-03-28T22:07:33.287Z,9.40
2023-03-28T22:08:33.304Z,9.50
2023-03-28T22:09:33.289Z,7.10
2023-03-28T22:10:33.294Z,7.00
2023-03-28T22:11:33.232Z,6.40
2023-03-28T22:12:33.210Z,8.10
2023-03-28T22:13:33.223Z,7.30
2023-03-28T22:14:33.217Z,6.30
2023-03-28T22:15:33.234Z,6.90
2023-03-28T22:16:33.156Z,6.40
2023-03-28T22:17:33.272Z,5.00
2023-03-28T22:18:33.134Z,5.10
2023-03-28T22:19:33.111Z,5.40
2023-03-28T22:20:33.128Z,5.30
2023-03-28T22:21:33.163Z,6.40
2023-03-28T22:22:33.106Z,5.60
2023-03-28T22:23:33.186Z,5.00
2023-03-28T22:24:33.086Z,5.90
2023-03-28T22:25:33.050Z,6.10
2023-03-28T22:26:33.145Z,6.70
2023-03-28T22:27:33.091Z,6.50
2023-03-28T22:28:33.069Z,7.90
2023-03-28T22:29:33.054Z,7.10
2023-03-28T22:30:33.095Z,6.80
2023-03-28T22:31:33.058Z,6.90
2023-03-28T22:32:33.024Z,4.60
2023-03-28T22:33:33.020Z,3.90
2023-03-28T22:34:33.067Z,4.40
2023-03-28T22:35:32.940Z,4.10
2023-03-28T22:36:32.913Z,4.60
2023-03-28T22:37:32.888Z,6.00
2023-03-28T22:38:32.919Z,5.30
2023-03-28T22:39:32.899Z,7.00
2023-03-28T22:40:32.875Z,5.50
2023-03-28T22:41:32.978Z,4.80
2023-03-28T22:42:32.858Z,6.60
2023-03-28T22:43:32.862Z,5.70
2023-03-28T22:44:32.836Z,6.40
2023-03-28T22:45:32.794Z,6.30
2023-03-28T22:46:32.883Z,6.10
2023-03-28T22:47:32.811Z,4.70
2023-03-28T22:48:32.762Z,6.70
2023-03-28T22:49:32.791Z,4.50
2023-03-28T22:50:32.772Z,6.00
2023-03-28T22:51:32.732Z,5.60
2023-03-28T22:52:32.711Z,6.10
2023-03-28T22:53:32.743Z,6.20
2023-03-28T22:54:32.714Z,7.40
2023-03-28T22:55:32.691Z,5.10
2023-03-28T22:56:32.677Z,7.20
2023-03-28T22:57:32.642Z,7.40
2023-03-28T22:58:32.638Z,5.60
2023-03-28T22:59:32.652Z,4.90
2023-03-28T23:00:32.650Z,4.80
2023-03-28T23:01:32.690Z,7.40
2023-03-28T23:02:32.605Z,6.30
2023-03-28T23:03:32.591Z,6.00
2023-03-28T23:04:32.593Z,5.90
2023-03-28T23:05:32.617Z,4.90
2023-03-28T23:06:32.579Z,6.30
2023-03-28T23:07:32.574Z,5.80
2023-03-28T23:08:32.536Z,6.30
2023-03-28T23:09:32.497Z,5.20
2023-03-28T23:10:32.512Z,5.10
2023-03-28T23:11:32.539Z,7.00
2023-03-28T23:12:32.468Z,5.70
2023-03-28T23:13:32.476Z,5.30
2023-03-28T23:14:32.487Z,4.30
2023-03-28T23:15:32.473Z,6.40
2023-03-28T23:16:32.492Z,5.90
2023-03-28T23:17:32.445Z,5.10
2023-03-28T23:18:32.454Z,5.50
2023-03-28T23:19:32.423Z,5.30
2023-03-28T23:20:32.402Z,4.70
2023-03-28T23:21:32.457Z,5.00
2023-03-28T23:22:32.341Z,5.20
2023-03-28T23:23:32.441Z,5.70
2023-03-28T23:24:32.338Z,4.40
2023-03-28T23:25:32.353Z,3.50
2023-03-28T23:26:32.310Z,6.00
2023-03-28T23:27:32.316Z,4.70
2023-03-28T23:28:32.297Z,5.00
2023-03-28T23:29:32.245Z,4.70
2023-03-28T23:30:32.261Z,4.20
2023-03-28T23:31:32.338Z,4.80
2023-03-28T23:32:32.255Z,3.70
2023-03-28T23:33:32.201Z,4.50
2023-03-28T23:34:32.199Z,3.60
2023-03-28T23:35:32.227Z,3.70
2023-03-28T23:36:32.265Z,4.80
2023-03-28T23:37:32.214Z,4.80
2023-03-28T23:38:32.182Z,5.00
2023-03-28T23:39:33.610Z,4.30
2023-03-28T23:40:32.165Z,4.70
2023-03-28T23:41:32.183Z,4.70
2023-03-28T23:42:32.671Z,4.50
2023-03-28T23:43:32.096Z,4.70
2023-03-28T23:44:32.130Z,3.90
2023-03-28T23:45:32.097Z,3.70
2023-03-28T23:46:32.101Z,4.90
2023-03-28T23:47:32.201Z,6.00
2023-03-28T23:48:32.135Z,5.30
2023-03-28T23:49:32.061Z,3.10
2023-03-28T23:50:32.047Z,7.10
2023-03-28T23:51:32.080Z,5.40
2023-03-28T23:52:33.301Z,4.70
2023-03-28T23:53:32.013Z,7.20
2023-03-28T23:54:32.020Z,5.40
2023-03-28T23:55:31.957Z,5.70
2023-03-28T23:56:31.948Z,5.10
2023-03-28T23:57:31.945Z,4.60
2023-03-28T23:58:31.925Z,5.40
2023-03-28T23:59:31.944Z,3.90
